Date,TemperatureHighF,TemperatureAvgF,TemperatureLowF,DewpointHighF,DewpointAvgF,DewpointLowF,HumidityHigh,HumidityAvg,HumidityLow,PressureMaxIn,PressureMinIn,WindSpeedMaxMPH,WindSpeedAvgMPH,GustSpeedMaxMPH,PrecipitationSumIn
2014-1-1,27.7,20.1,13.4,14.0,9.8,7.0,84,66,44,30.29,30.07,13,2,15,0.00
2014-1-2,19.6,12.3,3.3,16.0,8.0,-1.0,86,83,78,30.26,29.81,11,5,22,0.00
2014-1-3,15.1,7.0,-3.0,8.0,-0.8,-9.0,87,71,55,30.31,29.68,15,4,18,0.00
2014-1-4,28.7,11.1,-6.9,12.0,0.7,-11.0,85,66,36,30.39,30.15,8,1,13,0.00
2014-1-5,39.3,26.8,9.2,32.0,19.2,6.0,94,74,50,30.22,29.85,6,1,12,0.02
2014-1-6,54.6,37.9,27.5,54.0,35.2,17.0,98,90,64,29.83,29.16,7,2,18,1.63
2014-1-7,27.2,13.9,7.2,17.0,-2.0,-9.0,66,50,39,30.10,29.39,14,5,23,0.00
2014-1-8,25.5,13.9,5.6,9.0,1.4,-7.0,75,59,42,30.35,30.10,7,2,12,0.00
2014-1-9,31.5,18.7,9.1,13.0,8.4,6.0,85,65,42,30.54,30.31,8,1,12,0.00
2014-1-10,33.8,23.1,7.2,31.0,20.3,3.0,94,88,83,30.50,30.16,2,0,4,0.01
2014-1-11,54.8,40.0,32.6,54.0,39.0,31.0,98,96,93,30.16,29.14,4,1,9,0.35
2014-1-12,51.4,43.2,33.5,51.0,32.4,26.0,98,67,49,29.84,29.15,9,2,20,0.00
2014-1-13,55.1,40.1,29.0,40.0,30.3,26.0,88,70,41,30.00,29.76,8,2,15,0.00
2014-1-14,46.8,43.6,39.8,45.0,41.4,39.0,98,92,78,29.76,29.50,4,1,12,0.40
2014-1-15,48.7,36.5,29.2,42.0,33.3,28.0,98,89,66,29.90,29.65,8,1,11,0.01
2014-1-16,39.1,34.5,29.7,36.0,33.0,28.0,97,94,88,29.82,29.75,3,0,5,0.00
2014-1-17,48.0,36.5,29.2,35.0,30.1,25.0,97,80,43,29.87,29.79,7,1,12,0.00
2014-1-18,34.3,32.2,29.3,33.0,30.4,27.0,95,92,88,29.81,29.53,4,1,6,0.01
2014-1-19,32.8,31.1,27.3,32.0,27.4,23.0,96,86,75,29.61,29.41,11,2,16,0.03
2014-1-20,43.8,33.8,20.4,32.0,25.1,9.0,86,71,54,29.79,29.37,11,3,18,0.24
2014-1-21,20.2,14.7,10.9,10.0,3.9,0.0,82,63,48,29.98,29.79,10,4,12,0.00
2014-1-22,20.3,11.8,7.0,7.0,-0.7,-5.0,81,58,44,29.81,29.57,11,4,16,0.00
2014-1-23,25.3,12.3,2.9,2.0,-2.7,-6.0,74,53,34,30.04,29.80,8,2,11,0.00
2014-1-24,23.4,11.1,1.5,2.0,-2.0,-6.0,81,58,32,30.16,29.92,8,2,15,0.00
2014-1-25,36.1,24.6,13.9,28.0,14.9,1.0,89,67,55,29.91,29.22,10,3,17,0.00
2014-1-26,25.1,19.7,13.5,18.0,4.0,-6.0,79,52,33,29.76,29.22,16,3,24,0.00
2014-1-27,43.7,26.5,19.8,38.0,16.3,6.0,94,67,41,29.87,29.40,10,2,24,0.06
2014-1-28,23.9,16.8,10.0,7.0,-1.4,-7.0,60,45,30,30.19,29.89,12,2,16,0.00
2014-1-29,31.3,20.6,15.6,6.0,0.6,-4.0,66,44,23,30.12,29.86,7,2,15,0.00
2014-1-30,36.4,20.5,8.8,11.0,5.8,-1.0,73,55,34,30.33,30.08,7,1,15,0.00
2014-1-31,43.7,30.7,18.4,24.0,18.6,11.0,89,63,36,30.08,29.90,10,1,11,0.00
2014-2-1,51.0,35.8,24.6,31.0,25.2,21.0,88,68,37,30.23,29.91,4,1,9,0.00
2014-2-2,46.3,37.6,31.6,40.0,34.6,30.0,95,89,71,29.94,29.74,2,0,6,0.05
2014-2-3,35.3,31.2,20.4,33.0,26.4,18.0,95,83,60,30.19,29.96,8,1,12,0.01
2014-2-4,42.5,27.1,14.1,26.0,19.9,12.0,94,76,43,30.36,30.19,5,1,7,0.01
2014-2-5,29.6,27.1,24.4,26.0,23.5,21.0,92,86,72,30.19,29.56,12,3,14,0.01
2014-2-6,33.8,21.5,9.4,22.0,13.7,7.0,90,74,44,30.17,29.86,6,1,10,0.30
2014-2-7,35.7,19.5,4.0,17.0,8.9,1.0,93,67,38,30.14,30.03,10,1,16,0.20
2014-2-8,37.1,22.9,5.7,14.0,7.6,1.0,83,54,32,30.18,30.03,5,1,14,0.08
2014-2-9,37.2,27.4,20.9,25.0,16.9,11.0,91,66,44,30.08,29.84,5,1,10,0.05
2014-2-10,33.1,22.4,7.4,23.0,13.4,4.0,92,71,44,30.11,29.80,8,1,16,0.12
2014-2-11,31.7,14.2,-0.9,15.0,3.7,-5.0,89,66,39,30.35,30.11,15,1,15,0.03
2014-2-12,36.8,16.5,-0.6,8.0,2.2,-5.0,86,57,25,30.47,30.33,6,1,12,0.00
2014-2-13,33.9,26.6,12.3,32.0,23.6,8.0,94,88,72,30.31,28.96,15,6,22,0.00
2014-2-14,34.3,32.3,26.4,33.0,28.1,22.0,96,84,72,29.61,28.74,11,2,22,0.51
2014-2-15,34.6,28.3,20.9,31.0,25.8,19.0,94,90,75,29.75,29.41,8,2,18,0.00
2014-2-16,36.8,27.2,20.6,28.0,15.2,6.0,89,62,41,29.88,29.40,12,2,23,0.03
2014-2-17,33.5,20.2,8.4,10.0,2.4,-1.0,71,47,31,30.26,29.89,11,3,19,0.01
2014-2-18,27.3,17.5,4.6,25.0,13.3,0.0,93,83,66,30.27,29.83,8,2,10,0.00
2014-2-19,34.1,26.4,14.4,31.0,23.6,12.0,96,89,76,29.99,29.65,4,0,7,0.00
2014-2-20,53.4,34.6,18.0,35.0,27.5,16.0,97,78,39,30.12,29.73,6,1,15,0.45
2014-2-21,39.5,36.0,31.4,39.0,35.0,30.0,97,96,95,30.04,29.57,5,1,9,0.40
2014-2-22,56.8,40.0,26.4,38.0,28.5,25.0,98,69,31,29.84,29.71,14,2,24,0.00
2014-2-23,49.7,36.4,25.5,33.0,28.6,24.0,93,75,45,29.88,29.65,9,1,10,0.00
2014-2-24,38.2,31.5,22.2,31.0,17.2,10.0,89,57,40,29.83,29.62,10,3,17,0.00
2014-2-25,33.1,22.0,13.1,11.0,8.8,7.0,86,59,37,29.87,29.77,9,2,17,0.00
2014-2-26,33.7,19.7,10.1,13.0,5.7,-2.0,84,57,32,29.83,29.65,12,2,18,0.00
2014-2-27,32.6,18.9,8.6,13.0,4.9,-2.0,77,57,28,29.79,29.47,11,2,20,0.00
2014-2-28,31.6,17.2,7.1,3.0,-2.5,-7.0,72,44,20,30.34,29.80,8,2,17,0.00
2014-3-1,36.8,22.1,3.1,22.0,8.8,-2.0,83,60,31,30.35,29.96,11,2,17,0.00
2014-3-2,41.4,33.9,27.2,27.0,22.6,16.0,78,64,54,29.96,29.85,8,2,12,0.00
2014-3-3,27.0,20.9,9.4,15.0,5.9,-1.0,67,53,36,30.20,29.91,12,3,16,0.00
2014-3-4,35.4,20.0,2.3,14.0,3.7,-3.0,84,53,26,30.29,30.13,6,1,9,0.00
2014-3-5,27.9,23.7,15.8,21.0,16.5,6.0,83,74,63,30.42,30.14,7,2,9,0.00
2014-3-6,38.9,19.7,2.9,8.0,2.5,-3.0,78,52,20,30.55,30.42,6,1,11,0.00
2014-3-7,46.3,24.4,2.3,23.0,12.1,-2.0,84,64,31,30.41,29.86,6,1,7,0.00
2014-3-8,58.4,36.1,18.6,32.0,24.2,16.0,91,65,34,29.85,29.58,10,2,13,0.00
2014-3-9,46.0,34.0,25.6,19.0,15.7,10.0,67,50,25,29.84,29.76,8,2,19,0.00
2014-3-10,44.7,35.6,27.6,30.0,24.3,14.0,85,65,47,29.77,29.52,8,1,10,0.00
2014-3-11,61.9,43.4,29.7,37.0,31.1,27.0,92,67,31,29.61,29.39,7,1,18,0.00
2014-3-12,44.2,38.2,34.8,38.0,34.7,30.0,95,87,75,29.61,28.95,6,2,12,0.20
2014-3-13,36.1,22.8,15.9,35.0,14.2,2.0,94,71,50,29.83,28.92,12,4,21,0.01
2014-3-14,39.6,26.1,11.0,22.0,10.7,0.0,73,53,36,30.06,29.78,7,2,17,0.01
2014-3-15,60.0,43.7,34.6,38.0,30.8,21.0,87,63,35,29.78,29.53,10,3,27,0.01
2014-3-16,39.4,31.6,22.4,20.0,10.6,2.0,65,43,25,30.10,29.76,14,3,21,0.00
2014-3-17,35.8,24.3,15.9,10.0,3.5,-2.0,64,42,26,30.11,29.94,9,3,14,0.00
2014-3-18,45.6,27.5,11.4,20.0,11.1,5.0,82,55,21,30.26,30.07,6,1,7,0.00
2014-3-19,48.8,32.6,19.1,32.0,24.1,16.0,91,73,42,30.30,29.91,6,1,11,0.00
2014-3-20,51.9,41.2,34.0,42.0,32.9,27.0,96,75,46,29.91,29.50,14,2,20,0.22
2014-3-21,43.4,37.8,28.8,27.0,24.2,21.0,77,59,48,29.91,29.62,11,3,21,0.00
2014-3-22,56.7,37.0,24.2,38.0,26.2,21.0,91,67,40,29.95,29.54,9,2,26,0.00
2014-3-23,46.5,35.3,22.9,26.0,18.4,4.0,84,53,29,30.00,29.81,11,2,19,0.00
2014-3-24,38.1,25.2,15.4,10.0,4.6,1.0,60,43,25,30.07,29.95,11,2,22,0.00
2014-3-25,40.9,27.7,14.3,19.0,13.0,10.0,87,57,30,30.05,29.84,10,2,14,0.00
2014-3-26,35.9,30.6,23.2,21.0,14.0,3.0,68,51,37,29.93,29.53,21,6,30,0.00
2014-3-27,47.3,32.5,19.5,19.0,7.6,2.0,51,37,21,30.22,29.93,9,2,16,0.00
2014-3-28,52.4,43.9,36.1,48.0,34.3,16.0,94,71,42,30.12,29.82,12,2,19,0.06
2014-3-29,53.0,44.8,37.6,47.0,39.5,36.0,96,83,62,30.14,29.89,10,2,15,0.04
2014-3-30,40.6,39.4,36.9,39.0,37.8,35.0,95,94,90,29.90,29.56,14,5,20,0.13
2014-3-31,43.0,38.1,35.1,37.0,33.9,30.0,96,85,70,29.92,29.61,12,4,16,0.07
2014-4-1,61.8,45.1,30.8,37.0,31.4,27.0,86,62,36,30.00,29.89,11,2,12,0.00
2014-4-2,64.9,43.6,28.7,38.0,31.8,26.0,93,67,35,30.02,29.88,8,1,12,0.00
2014-4-3,60.5,42.4,25.9,33.0,27.7,24.0,94,62,30,30.04,29.94,11,2,14,0.00
2014-4-4,57.3,42.2,33.2,37.0,29.9,23.0,93,64,36,30.07,29.81,8,2,14,0.22
2014-4-5,56.5,43.0,37.9,44.0,34.1,25.0,96,74,44,29.82,29.59,16,3,22,0.06
2014-4-6,62.2,46.1,33.7,28.0,24.5,21.0,71,47,21,30.06,29.82,11,2,15,0.00
2014-4-7,63.6,46.0,30.1,40.0,28.4,20.0,90,57,25,30.13,29.82,13,2,13,0.01
2014-4-8,66.8,51.6,43.6,58.0,45.9,34.0,97,83,53,29.80,29.16,12,2,19,0.36
2014-4-9,61.2,47.3,33.5,41.0,29.6,14.0,93,54,29,29.86,29.39,12,2,18,0.00
2014-4-10,67.5,46.8,25.8,33.0,24.2,17.0,87,47,16,30.03,29.86,13,3,19,0.00
2014-4-11,75.5,58.6,49.5,51.0,42.4,33.0,91,57,35,29.90,29.78,15,2,17,0.09
2014-4-12,73.3,56.2,38.5,47.0,38.9,30.0,98,61,22,30.08,29.86,15,2,17,0.06
2014-4-13,60.9,48.2,41.9,48.0,42.2,37.0,92,80,57,30.16,29.92,7,1,10,0.03
2014-4-14,81.6,60.3,39.2,59.0,48.9,37.0,96,70,42,29.93,29.71,15,4,25,0.00
2014-4-15,66.9,61.6,42.5,61.0,57.7,40.0,94,87,75,29.75,29.40,14,5,28,0.92
2014-4-16,48.4,38.0,29.9,39.0,25.5,18.0,93,64,37,30.51,29.64,15,4,21,0.20
2014-4-17,51.0,37.2,26.1,28.0,23.5,18.0,84,60,37,30.72,30.52,10,2,16,0.00
2014-4-18,51.7,38.6,25.7,35.0,30.1,23.0,91,73,48,30.56,30.15,7,1,11,0.00
2014-4-19,65.9,47.6,31.2,45.0,33.3,28.0,95,62,34,30.30,30.06,15,3,23,0.04
2014-4-20,64.1,47.2,29.5,32.0,26.8,22.0,91,51,20,30.42,30.22,7,2,15,0.00
2014-4-21,77.1,55.0,33.3,34.0,28.0,15.0,87,45,11,30.22,29.70,13,2,16,0.00
2014-4-22,80.6,61.3,44.2,54.0,41.6,29.0,90,53,26,29.70,29.33,9,2,16,0.06
2014-4-23,55.9,52.0,46.3,53.0,44.9,34.0,96,78,58,29.51,29.30,17,3,22,0.03
2014-4-24,60.8,50.4,40.6,33.0,28.5,22.0,59,44,30,29.81,29.51,19,6,32,0.00
2014-4-25,70.5,53.9,34.0,36.0,30.3,22.0,85,45,18,29.90,29.69,8,1,13,0.00
2014-4-26,52.6,46.1,42.8,44.0,40.4,34.0,93,82,52,29.77,29.65,7,1,9,0.12
2014-4-27,53.9,46.1,41.6,47.0,41.8,37.0,95,85,69,29.94,29.74,7,2,11,0.05
2014-4-28,65.5,51.6,40.1,44.0,39.9,36.0,87,67,41,30.12,29.89,11,3,15,0.00
2014-4-29,49.2,44.8,41.6,41.0,37.0,35.0,83,74,66,30.43,30.13,9,4,23,0.00
2014-4-30,48.5,43.3,41.1,42.0,40.2,37.0,95,88,74,30.45,30.08,5,1,9,0.19
2014-5-1,65.4,51.7,42.4,58.0,49.4,41.0,97,92,74,30.07,29.54,5,1,7,0.21
2014-5-2,70.8,57.6,46.4,52.0,44.1,40.0,96,65,37,29.69,29.55,13,2,15,0.00
2014-5-3,70.3,57.0,42.9,47.0,43.7,40.0,91,64,40,29.74,29.59,7,1,11,0.00
2014-5-4,61.5,54.2,49.5,48.0,41.4,36.0,89,64,46,29.58,29.41,13,3,22,0.01
2014-5-5,66.6,56.4,48.8,47.0,42.9,40.0,79,62,44,29.75,29.50,10,3,19,0.00
2014-5-6,69.9,54.3,38.8,46.0,36.1,28.0,93,55,30,29.93,29.72,13,2,16,0.00
2014-5-7,73.8,56.6,35.7,39.0,33.5,26.0,88,48,19,30.06,29.93,8,1,14,0.00
2014-5-8,79.1,59.1,38.1,47.0,40.0,34.0,91,55,23,30.08,29.92,5,1,10,0.00
2014-5-9,55.3,53.2,50.8,50.0,47.2,42.0,93,80,62,30.13,29.96,4,1,6,0.00
2014-5-10,80.9,63.5,52.0,67.0,56.9,50.0,97,81,47,29.96,29.60,11,2,19,0.03
2014-5-11,84.8,71.7,61.6,59.0,42.7,32.0,80,39,16,29.90,29.65,8,2,16,0.00
2014-5-12,91.4,71.9,47.9,51.0,46.2,41.0,89,46,18,29.99,29.82,8,2,21,0.00
2014-5-13,60.3,53.0,49.2,46.0,43.5,40.0,79,70,56,30.22,30.01,7,1,20,0.00
2014-5-14,79.8,59.9,46.7,52.0,46.5,40.0,84,64,35,30.23,30.11,6,1,11,0.00
2014-5-15,83.2,68.7,57.6,65.0,59.9,52.0,89,75,51,30.16,30.06,11,2,17,0.00
2014-5-16,73.7,67.1,64.7,66.0,63.2,61.0,96,87,72,30.07,29.83,6,2,15,0.20
2014-5-17,79.1,66.9,51.6,65.0,53.3,38.0,97,67,30,29.95,29.70,10,2,17,0.50
2014-5-18,73.7,60.4,43.0,48.0,41.4,33.0,95,54,29,30.00,29.89,9,2,13,0.00
2014-5-19,71.9,59.5,47.3,48.0,40.8,35.0,80,52,33,29.98,29.90,13,3,18,0.00
2014-5-20,79.4,63.8,44.9,50.0,45.7,42.0,93,57,30,29.91,29.80,15,3,22,0.00
2014-5-21,83.9,64.2,45.8,55.0,49.9,44.0,94,64,29,29.89,29.77,5,1,12,0.00
2014-5-22,69.4,58.7,51.1,58.0,54.2,49.0,95,86,60,29.82,29.74,4,1,8,0.24
2014-5-23,60.0,56.2,52.9,58.0,54.2,51.0,96,93,86,29.89,29.75,5,1,9,0.03
2014-5-24,69.4,58.8,52.5,60.0,54.1,51.0,96,85,60,29.95,29.85,6,1,12,0.03
2014-5-25,79.8,64.0,54.7,62.0,56.3,53.0,96,78,45,29.98,29.86,6,1,11,0.02
2014-5-26,80.3,66.7,52.6,62.0,57.2,52.0,98,75,44,29.87,29.66,6,1,12,0.02
2014-5-27,74.8,59.9,48.8,64.0,55.0,47.0,95,84,66,29.86,29.68,8,2,13,0.05
2014-5-28,51.2,49.3,43.4,50.0,47.2,42.0,95,92,88,30.12,29.83,7,2,12,0.03
2014-5-29,73.7,56.2,40.9,54.0,44.6,40.0,97,70,34,30.15,30.02,7,1,9,0.00
2014-5-30,79.2,60.8,44.2,60.0,51.0,42.0,95,74,33,30.02,29.86,8,1,11,0.02
2014-5-31,71.3,59.3,45.9,57.0,50.2,40.0,93,74,51,30.19,29.95,8,2,14,0.00
2014-6-1,84.0,63.8,41.5,58.0,45.9,40.0,96,59,25,30.23,30.09,6,1,10,0.00
2014-6-2,89.4,70.5,49.2,58.0,51.9,47.0,91,57,27,30.11,29.85,8,1,12,0.00
2014-6-3,89.7,71.2,55.0,64.0,57.3,53.0,95,65,32,29.89,29.76,6,1,13,0.00
2014-6-4,69.9,63.6,59.0,60.0,55.7,52.0,87,76,66,29.78,29.65,5,1,7,0.00
2014-6-5,65.8,60.3,55.8,62.0,58.1,54.0,96,92,84,29.68,29.55,5,1,9,0.02
2014-6-6,78.6,65.6,54.9,60.0,56.1,54.0,97,74,47,29.76,29.58,7,1,14,0.00
2014-6-7,87.9,71.5,52.3,62.0,56.8,51.0,97,65,37,29.81,29.74,7,2,12,0.00
2014-6-8,90.6,73.9,54.1,63.0,58.2,52.0,96,63,32,29.83,29.72,5,1,10,0.00
2014-6-9,85.9,70.4,60.1,66.0,61.3,58.0,95,74,50,29.86,29.77,7,1,13,0.00
2014-6-10,82.1,70.4,62.7,68.0,63.0,56.0,94,78,61,30.00,29.80,7,2,15,0.01
2014-6-11,79.1,65.0,53.9,59.0,53.4,48.0,94,68,40,30.07,30.00,7,1,12,0.00
2014-6-12,72.0,64.1,59.2,62.0,57.1,51.0,90,78,68,30.05,29.95,5,1,10,0.00
2014-6-13,63.6,61.8,59.8,62.0,59.6,58.0,96,93,87,29.95,29.70,6,2,9,0.28
2014-6-14,78.2,66.1,59.0,67.0,59.7,53.0,97,81,61,29.80,29.69,8,1,10,0.00
2014-6-15,81.4,69.4,56.6,60.0,54.8,50.0,88,62,44,29.94,29.79,10,3,18,0.00
2014-6-16,87.4,70.2,51.5,61.0,53.5,49.0,94,61,28,30.04,29.88,5,1,9,0.00
2014-6-17,92.7,77.2,62.7,71.0,63.7,58.0,84,65,41,29.93,29.71,6,1,11,0.00
2014-6-18,87.4,77.6,68.2,70.0,65.9,61.0,96,69,49,29.81,29.58,9,2,16,0.17
2014-6-19,85.7,73.6,59.9,65.0,55.2,40.0,90,57,28,29.86,29.78,8,2,16,0.00
2014-6-20,79.7,66.1,51.1,54.0,47.5,42.0,92,55,28,29.86,29.77,11,2,18,0.00
2014-6-21,79.2,64.3,47.8,53.0,48.9,45.0,92,61,36,29.86,29.76,7,1,14,0.00
2014-6-22,79.6,66.0,47.9,61.0,51.9,46.0,94,64,39,29.92,29.82,6,1,13,0.00
2014-6-23,87.6,69.7,51.9,59.0,54.6,49.0,94,62,33,30.03,29.91,6,1,10,0.00
2014-6-24,87.5,73.2,60.2,63.0,57.9,50.0,81,60,42,30.03,29.86,11,2,15,0.00
2014-6-25,93.0,78.6,65.0,72.0,65.4,55.0,92,65,47,29.87,29.70,9,2,13,0.03
2014-6-26,80.3,72.2,61.7,73.0,67.9,59.0,97,87,73,29.90,29.66,6,1,10,0.33
2014-6-27,83.0,70.2,57.1,63.0,56.5,53.0,97,66,38,30.09,29.90,8,2,12,0.01
2014-6-28,89.8,72.2,53.4,65.0,55.5,49.0,94,61,26,30.15,30.08,5,1,10,0.00
2014-6-29,91.6,74.8,54.8,68.0,60.4,53.0,93,64,35,30.13,29.94,7,1,13,0.00
2014-6-30,92.9,78.6,63.0,69.0,64.0,58.0,86,63,41,29.96,29.77,8,2,15,0.00
2014-7-1,93.0,80.8,68.5,73.0,69.2,63.0,85,69,48,29.80,29.64,10,2,15,0.00
2014-7-2,96.3,80.3,71.2,77.0,71.6,67.0,96,76,53,29.81,29.67,9,2,21,0.26
2014-7-3,91.3,77.1,69.4,78.0,72.6,69.0,98,87,58,29.89,29.76,6,1,10,0.11
2014-7-4,75.5,69.4,63.8,71.0,67.5,62.0,98,94,79,29.88,29.69,5,0,12,0.36
2014-7-5,81.3,71.0,59.3,62.0,53.7,46.0,95,59,34,29.87,29.68,15,3,25,0.07
2014-7-6,88.1,75.6,60.3,61.0,55.5,50.0,74,52,34,29.87,29.72,13,2,22,0.00
2014-7-7,90.2,76.0,66.6,73.0,66.8,61.0,95,75,50,29.73,29.55,9,2,17,0.15
2014-7-8,92.1,80.4,68.7,74.0,70.5,68.0,98,74,49,29.65,29.51,11,2,15,0.15
2014-7-9,91.4,80.1,68.6,71.0,66.4,62.0,92,65,41,29.82,29.50,9,2,16,0.15
2014-7-10,84.0,73.2,64.4,66.0,61.9,56.0,97,72,38,30.03,29.80,6,1,11,0.19
2014-7-11,85.8,72.1,60.8,63.0,59.3,57.0,92,67,42,30.11,30.03,6,1,8,0.00
2014-7-12,91.0,74.6,56.8,66.0,61.3,55.0,94,67,37,30.10,29.97,5,1,11,0.00
2014-7-13,89.6,77.7,67.5,71.0,65.8,60.0,86,68,51,29.98,29.75,11,3,21,0.00
2014-7-14,92.3,80.6,71.9,73.0,70.7,68.0,94,74,47,29.77,29.70,6,2,12,0.01
2014-7-15,90.6,78.4,74.1,76.0,73.3,72.0,97,85,56,29.73,29.60,9,1,18,0.48
2014-7-16,76.7,73.1,67.0,73.0,70.9,65.0,97,92,83,29.73,29.62,3,0,12,0.28
2014-7-17,85.4,72.4,61.1,65.0,60.5,55.0,96,70,39,29.95,29.73,4,1,11,0.03
2014-7-18,83.9,70.6,57.1,63.0,58.6,54.0,95,70,38,30.11,29.95,7,1,9,0.00
2014-7-19,82.3,70.0,58.3,67.0,62.1,57.0,95,77,56,30.16,30.09,4,1,6,0.00
2014-7-20,82.1,69.4,60.1,63.0,59.5,53.0,95,74,37,30.11,30.02,5,1,10,0.00
2014-7-21,85.7,71.2,57.2,65.0,60.3,56.0,96,71,42,30.09,30.00,5,1,7,0.00
2014-7-22,94.6,77.9,60.3,71.0,65.6,59.0,95,69,40,30.03,29.84,6,1,12,0.00
2014-7-23,96.1,82.3,71.3,75.0,71.1,67.0,94,71,45,29.84,29.59,11,2,19,0.12
2014-7-24,83.3,73.8,63.1,70.0,64.9,58.0,96,76,48,29.79,29.63,7,2,11,0.10
2014-7-25,84.8,70.4,54.1,63.0,58.6,52.0,95,69,42,29.87,29.80,7,1,10,0.00
2014-7-26,87.4,73.1,59.3,65.0,60.0,55.0,97,68,37,29.85,29.73,9,2,14,0.00
2014-7-27,77.8,71.9,64.4,72.0,68.0,62.0,95,87,73,29.77,29.53,7,1,15,0.18
2014-7-28,86.6,72.6,64.3,75.0,68.7,63.0,97,88,62,29.55,29.30,7,1,16,0.07
2014-7-29,82.0,70.1,60.0,63.0,59.6,56.0,96,72,45,29.81,29.42,8,1,10,0.07
2014-7-30,80.8,69.0,60.7,62.0,59.7,56.0,93,75,43,29.93,29.82,8,1,8,0.04
2014-7-31,84.2,70.7,55.7,65.0,60.2,54.0,95,73,45,30.03,29.92,6,1,15,0.01
2014-8-1,88.5,72.6,59.5,71.0,65.5,58.0,96,80,48,30.10,30.03,5,1,12,0.04
2014-8-2,77.3,70.3,61.1,69.0,64.1,58.0,95,82,58,30.11,30.01,6,1,9,0.00
2014-8-3,77.1,67.2,57.8,65.0,61.2,56.0,95,82,65,30.03,29.93,4,0,6,0.00
2014-8-4,87.3,74.5,62.2,70.0,65.2,60.0,95,75,47,29.93,29.86,4,1,8,0.00
2014-8-5,92.1,76.8,62.5,70.0,64.7,61.0,96,70,37,29.90,29.76,6,1,14,0.05
2014-8-6,84.1,73.3,63.9,69.0,63.2,56.0,96,74,42,29.76,29.66,12,2,12,0.06
2014-8-7,80.5,67.2,55.5,64.0,57.6,54.0,96,73,47,29.82,29.73,6,2,13,0.00
2014-8-8,85.2,69.9,53.8,62.0,57.4,52.0,96,68,39,29.91,29.82,8,2,15,0.00
2014-8-9,88.4,72.9,56.6,64.0,59.1,55.0,95,66,36,29.97,29.90,6,1,13,0.00
2014-8-10,89.1,73.6,57.5,65.0,59.5,54.0,95,66,30,30.01,29.95,6,1,9,0.00
2014-8-11,90.1,74.3,58.4,70.0,62.3,56.0,95,69,40,30.03,29.95,3,1,7,0.00
2014-8-12,87.6,73.6,61.5,67.0,62.2,58.0,95,70,44,30.00,29.90,10,1,12,0.00
2014-8-13,70.3,66.7,63.2,67.0,64.6,62.0,96,93,83,29.89,29.50,10,2,17,0.36
2014-8-14,78.9,66.3,55.2,62.0,55.5,49.0,98,72,40,29.75,29.55,6,1,16,0.10
2014-8-15,75.6,63.7,54.2,58.0,54.8,52.0,93,75,49,29.80,29.72,6,1,11,0.06
2014-8-16,80.7,68.5,57.4,59.0,55.2,52.0,87,65,39,29.84,29.78,8,1,16,0.03
2014-8-17,80.4,68.1,58.2,64.0,59.4,55.0,96,75,54,29.77,29.65,8,1,16,0.02
2014-8-18,79.9,66.3,55.1,59.0,54.2,51.0,95,69,39,29.77,29.67,11,2,15,0.02
2014-8-19,83.4,65.9,49.0,60.0,54.4,47.0,95,70,40,29.84,29.76,5,1,8,0.00
2014-8-20,87.6,69.0,53.0,64.0,57.9,51.0,95,71,40,29.95,29.84,8,1,10,0.00
2014-8-21,73.2,63.8,55.5,64.0,58.4,53.0,94,83,67,29.99,29.94,4,1,8,0.01
2014-8-22,72.0,64.7,59.5,66.0,61.2,58.0,95,89,75,30.01,29.97,5,1,8,0.07
2014-8-23,77.1,66.7,59.1,63.0,59.4,56.0,94,79,57,30.02,29.98,8,2,11,0.01
2014-8-24,85.6,69.4,54.8,66.0,60.3,53.0,96,76,45,30.04,29.98,5,1,8,0.01
2014-8-25,92.0,73.1,57.1,69.0,62.6,55.0,97,74,37,30.04,29.97,6,1,7,0.00
2014-8-26,93.0,74.8,59.4,71.0,63.8,58.0,96,73,37,30.03,29.90,5,1,7,0.00
2014-8-27,94.7,78.7,64.2,73.0,68.4,62.0,95,73,45,29.90,29.71,5,1,11,0.00
2014-8-28,82.9,72.4,62.0,69.0,57.9,50.0,88,62,37,29.88,29.68,10,2,17,0.00
2014-8-29,83.9,66.4,52.1,60.0,55.0,50.0,95,69,39,30.15,29.88,4,1,9,0.00
2014-8-30,83.3,67.8,53.6,63.0,57.5,52.0,97,73,41,30.19,29.99,9,2,15,0.00
2014-8-31,87.5,76.0,66.2,74.0,69.1,61.0,94,80,60,29.99,29.80,6,2,14,0.02
2014-9-1,92.9,78.7,68.9,73.0,69.8,67.0,98,77,46,29.86,29.77,4,1,9,0.02
2014-9-2,94.0,77.3,67.6,77.0,71.9,66.0,97,85,50,29.80,29.59,6,1,16,0.05
2014-9-3,86.7,74.2,62.8,73.0,64.0,58.0,96,74,41,29.96,29.57,6,1,12,0.02
2014-9-4,90.9,72.1,56.4,66.0,60.8,55.0,97,72,39,30.08,29.96,6,1,12,0.01
2014-9-5,94.1,77.0,62.5,73.0,67.6,61.0,96,75,47,30.02,29.83,5,1,14,0.02
2014-9-6,94.7,77.7,66.4,76.0,70.9,63.0,96,82,49,29.83,29.61,11,2,18,0.01
2014-9-7,80.3,68.7,57.0,64.0,58.2,51.0,96,73,37,30.10,29.80,10,1,13,0.01
2014-9-8,79.4,63.6,51.9,59.0,53.8,50.0,96,74,43,30.27,30.10,8,1,11,0.01
2014-9-9,74.1,61.7,52.2,58.0,53.6,50.0,94,77,47,30.26,30.09,7,1,12,0.01
2014-9-10,73.0,64.0,57.5,61.0,58.7,55.0,94,83,62,30.09,29.92,5,1,8,0.01
2014-9-11,74.6,68.0,58.5,69.0,63.5,57.0,95,86,75,29.92,29.64,9,1,12,0.02
2014-9-12,73.0,63.4,53.5,57.0,51.0,46.0,78,65,47,30.13,29.78,8,3,17,0.01
2014-9-13,62.6,56.1,46.5,57.0,51.4,44.0,95,84,70,30.19,30.00,8,1,12,0.00
2014-9-14,69.4,56.6,46.7,55.0,48.2,44.0,96,76,44,30.13,29.99,9,2,13,0.01
2014-9-15,71.7,53.5,40.3,51.0,45.8,39.0,96,78,40,30.15,29.98,4,0,8,0.01
2014-9-16,62.7,54.8,49.7,58.0,52.6,48.0,96,92,82,30.00,29.84,3,0,4,0.01
2014-9-17,75.4,57.9,45.1,57.0,49.3,44.0,98,77,39,29.91,29.82,4,0,9,0.00
2014-9-18,77.7,57.9,43.0,56.0,48.3,42.0,97,74,42,30.05,29.82,5,1,11,0.01
2014-9-19,67.6,50.9,39.1,44.0,37.4,33.0,92,65,29,30.31,30.05,7,1,15,0.00
2014-9-20,74.6,54.9,35.8,58.0,47.8,34.0,95,79,57,30.30,29.97,7,1,14,0.00
2014-9-21,81.5,67.3,55.0,74.0,64.6,53.0,98,91,74,29.97,29.43,3,0,8,0.01
2014-9-22,76.4,65.1,49.4,68.0,52.6,39.0,97,67,39,29.97,29.39,8,2,18,0.01
2014-9-23,76.8,56.6,40.6,52.0,46.0,39.0,95,72,38,30.32,29.97,6,1,13,0.01
2014-9-24,72.9,56.3,44.2,58.0,49.2,42.0,97,79,50,30.52,30.33,7,1,11,0.01
2014-9-25,64.0,53.8,46.5,55.0,49.8,45.0,96,87,66,30.45,30.15,4,0,6,0.01
2014-9-26,80.9,61.3,47.4,61.0,53.9,46.0,96,80,47,30.15,30.02,4,1,11,0.01
2014-9-27,89.2,65.9,48.5,66.0,57.2,47.0,98,78,39,30.07,30.00,4,1,8,0.00
2014-9-28,93.3,69.1,52.2,69.0,60.1,51.0,98,77,37,30.04,29.85,5,0,7,0.01
2014-9-29,80.4,63.7,57.1,66.0,58.8,55.0,96,85,51,29.93,29.83,8,2,11,0.00
2014-9-30,60.3,58.3,56.7,57.0,55.6,55.0,95,91,86,29.94,29.89,5,1,9,0.01
2014-10-1,58.9,58.1,57.1,58.0,56.5,56.0,95,95,93,30.02,29.91,7,2,10,0.00
2014-10-2,60.5,55.9,48.4,57.0,53.4,47.0,96,91,82,30.08,30.01,5,2,11,0.01
2014-10-3,71.3,55.6,45.7,55.0,49.7,44.0,97,83,54,30.05,29.81,7,1,11,0.01
2014-10-4,62.2,58.2,53.7,61.0,56.8,52.0,97,95,91,29.80,29.41,6,1,10,0.01
2014-10-5,67.6,54.8,41.2,60.0,45.8,38.0,96,76,36,29.84,29.43,7,1,12,0.00
2014-10-6,72.9,52.4,36.2,50.0,43.1,35.0,97,75,35,30.03,29.84,8,1,13,0.01
2014-10-7,78.0,61.7,47.3,64.0,55.0,46.0,97,80,48,30.03,29.85,9,2,17,0.00
2014-10-8,76.4,66.8,60.7,62.0,57.3,48.0,96,75,42,29.84,29.57,10,3,18,0.01
2014-10-10,67.7,55.9,43.5,43.0,40.9,39.0,89,61,38,30.02,29.91,5,1,13,0.00
2014-10-11,58.6,46.8,41.9,49.0,44.0,40.0,94,90,69,30.04,29.95,4,0,7,0.01
2014-10-12,65.5,47.9,35.5,50.0,40.6,35.0,98,79,44,30.20,30.03,6,1,10,0.00
2014-10-13,63.8,49.5,34.6,54.0,45.2,33.0,97,86,68,30.25,30.13,5,0,10,0.01
2014-10-14,77.8,65.5,55.9,67.0,60.1,53.0,94,83,63,30.14,30.02,7,1,11,0.00
2014-10-15,82.9,69.7,59.5,69.0,64.6,58.0,97,85,62,30.02,29.84,10,1,18,0.01
2014-10-16,72.1,68.8,62.8,71.0,67.3,62.0,97,95,90,29.84,29.53,7,1,14,0.01
2014-10-17,76.3,64.1,57.3,62.0,57.3,54.0,98,81,48,29.56,29.48,7,1,18,0.01
2014-10-18,71.8,60.6,54.4,64.0,55.8,49.0,97,85,68,29.53,29.36,5,1,11,0.01
2014-10-19,58.2,51.0,42.0,50.0,38.5,27.0,82,63,49,29.85,29.47,10,3,17,0.00
2014-10-20,63.4,47.8,36.0,42.0,34.3,27.0,78,61,37,29.94,29.84,11,1,13,0.01
2014-10-21,62.6,52.5,45.2,56.0,48.8,42.0,93,87,76,29.90,29.80,9,1,10,0.01
2014-10-22,51.6,50.5,48.7,50.0,48.7,47.0,95,93,92,29.96,29.76,11,5,21,0.00
2014-10-23,53.8,51.1,48.4,52.0,49.2,47.0,97,93,88,29.75,29.55,15,5,21,1.08
2014-10-24,54.2,50.8,45.0,49.0,46.9,42.0,96,86,76,29.64,29.57,8,2,13,0.02
2014-10-25,71.5,54.0,39.1,49.0,44.4,38.0,97,74,36,29.65,29.47,4,0,10,0.00
2014-10-26,60.1,51.4,43.4,48.0,43.0,38.0,91,74,51,29.68,29.41,11,1,15,0.00
2014-10-27,64.5,48.6,37.3,44.0,40.1,36.0,96,75,43,30.02,29.68,12,1,14,0.00
2014-10-28,67.4,50.2,36.1,53.0,44.6,35.0,96,83,54,30.07,29.93,3,0,7,0.00
2014-10-29,61.9,54.0,48.8,57.0,51.4,47.0,97,91,66,29.93,29.77,4,0,7,0.10
2014-10-30,57.9,46.6,36.1,49.0,41.9,35.0,98,85,57,29.99,29.86,5,0,9,0.00
2014-10-31,54.2,46.4,40.9,42.0,40.2,38.0,96,80,59,30.05,29.98,5,1,8,0.00
2014-11-1,44.6,41.8,39.4,43.0,38.4,35.0,93,88,78,29.98,29.84,9,3,15,0.03
2014-11-2,42.3,40.5,38.4,37.0,28.5,18.0,89,64,40,29.86,29.66,16,6,29,0.00
2014-11-3,56.2,41.8,33.6,30.0,21.2,13.0,81,47,20,30.05,29.83,9,2,17,0.00
2014-11-4,65.2,45.2,30.3,41.0,35.4,28.0,91,71,36,30.13,29.98,6,0,7,0.00
2014-11-5,66.1,50.7,37.7,48.0,39.3,32.0,88,68,37,30.11,29.92,7,1,14,0.00
2014-11-6,47.7,44.0,37.5,46.0,41.6,35.0,96,91,81,30.11,29.52,2,0,6,0.10
2014-11-7,49.4,44.2,38.8,46.0,37.2,26.0,96,77,59,29.79,29.47,11,2,20,0.00
2014-11-8,52.9,41.3,32.5,34.0,27.2,24.0,76,59,35,29.95,29.79,11,1,14,0.00
2014-11-9,58.3,43.4,31.8,40.0,35.0,30.0,91,74,46,30.01,29.85,4,0,7,0.00
2014-11-10,61.7,42.1,30.0,41.0,34.2,28.0,96,77,40,30.19,30.01,4,0,9,0.00
2014-11-11,65.9,46.6,31.4,51.0,42.4,30.0,96,86,58,30.19,29.96,4,0,8,0.00
2014-11-12,68.8,54.5,42.6,56.0,48.8,32.0,97,82,59,30.00,29.81,7,1,10,0.00
2014-11-13,52.1,42.0,30.9,36.0,31.6,28.0,91,68,44,30.07,29.95,5,1,10,0.07
2014-11-14,44.3,36.8,27.5,35.0,28.5,19.0,95,74,41,30.09,29.90,10,1,14,0.05
2014-11-15,42.5,30.2,22.2,24.0,19.7,16.0,91,68,37,30.33,30.10,6,1,14,0.00
2014-11-16,42.8,33.5,21.8,30.0,24.4,19.0,92,71,50,30.37,30.11,11,1,13,0.00
2014-11-17,39.2,37.8,35.6,38.0,35.3,29.0,96,91,70,30.10,29.43,4,0,6,0.47
2014-11-18,40.5,32.8,25.1,37.0,19.5,6.0,96,62,37,29.90,29.45,11,2,23,0.01
2014-11-19,42.1,29.9,24.1,16.0,11.4,7.0,56,47,30,30.12,29.90,16,2,21,0.00
2014-11-20,47.1,35.3,27.5,25.0,19.3,13.0,71,53,37,30.04,29.75,13,2,18,0.00
2014-11-21,37.9,29.5,23.6,18.0,13.0,8.0,70,51,39,30.40,29.91,9,2,19,0.00
2014-11-22,41.5,32.7,20.1,22.0,14.7,9.0,79,50,31,30.42,30.03,13,2,16,0.00
2014-11-23,63.2,47.8,38.3,44.0,35.3,22.0,81,63,49,30.12,30.04,8,1,10,0.00
2014-11-24,67.1,56.1,39.3,63.0,52.6,35.0,98,88,80,30.07,29.52,10,3,19,0.53
2014-11-25,63.4,54.9,37.5,57.0,43.4,30.0,91,68,39,30.10,29.66,7,1,16,0.00
2014-11-26,41.0,37.2,33.7,36.0,33.7,32.0,95,87,75,30.20,29.72,6,1,12,0.08
2014-11-27,37.8,33.7,30.5,34.0,30.9,27.0,95,89,83,30.02,29.72,7,1,11,0.23
2014-11-28,35.9,29.0,18.1,29.0,24.3,16.0,92,83,63,30.21,30.00,12,1,14,0.10
2014-11-29,35.7,23.5,14.1,24.0,18.2,12.0,93,81,55,30.35,30.22,3,0,6,0.02
2014-11-30,46.4,36.8,27.3,42.0,34.0,23.0,95,89,80,30.25,30.00,2,0,4,0.06
2014-12-1,60.1,45.0,36.4,48.0,38.4,30.0,96,79,62,30.45,29.98,7,1,13,0.00
2014-12-2,37.4,33.5,30.4,31.0,24.6,18.0,92,71,57,30.73,30.41,8,3,12,0.00
2014-12-3,45.6,38.1,32.7,44.0,35.5,28.0,97,91,65,30.40,29.85,7,2,14,0.08
2014-12-4,42.9,34.6,23.7,28.0,24.6,20.0,87,68,47,30.56,30.07,11,2,15,0.00
2014-12-5,36.9,28.9,19.7,30.0,23.0,17.0,92,79,63,30.70,30.46,5,1,8,0.00
2014-12-6,37.1,35.1,32.1,36.0,33.9,30.0,96,95,92,30.45,30.15,6,1,8,0.46
2014-12-7,36.9,30.8,18.8,36.0,18.5,6.0,95,62,42,30.72,30.25,11,4,20,0.00
2014-12-8,26.6,21.5,15.7,21.0,12.3,2.0,79,68,55,30.80,30.54,7,3,12,0.00
2014-12-9,40.2,34.3,26.5,39.0,32.2,22.0,96,92,81,30.53,29.57,15,5,25,0.14
2014-12-10,39.7,38.6,37.4,38.0,37.4,36.0,96,95,94,29.60,29.43,9,2,15,0.15
2014-12-11,37.4,35.3,32.2,36.0,33.7,30.0,97,94,89,29.77,29.42,6,1,11,0.10
2014-12-12,39.7,34.0,28.1,33.0,29.9,27.0,95,85,74,29.88,29.77,5,1,8,0.03
2014-12-13,41.9,35.4,30.4,32.0,28.7,26.0,87,77,65,29.86,29.77,8,2,16,0.00
2014-12-14,43.3,34.7,27.8,32.0,28.9,26.0,93,80,64,29.91,29.78,7,1,11,0.00
2014-12-15,42.8,32.8,26.3,33.0,27.8,25.0,95,83,62,30.15,29.90,7,1,11,0.00
2014-12-16,38.6,34.8,27.0,36.0,31.9,25.0,95,89,81,30.16,29.93,3,0,4,0.00
2014-12-17,47.2,41.7,37.1,45.0,39.4,35.0,97,91,79,29.93,29.68,6,1,9,0.05
2014-12-18,45.0,39.9,36.9,36.0,32.6,29.0,88,75,66,29.85,29.70,8,2,16,0.01
2014-12-19,37.7,33.2,27.2,29.0,25.0,22.0,82,72,62,30.15,29.85,11,2,19,0.00
2014-12-20,36.9,30.8,23.3,28.0,23.9,20.0,87,76,62,30.32,30.16,5,2,10,0.00
2014-12-21,35.5,33.3,31.4,30.0,27.9,25.0,86,80,76,30.37,30.29,7,1,8,0.00
2014-12-22,41.0,36.6,33.3,36.0,32.4,29.0,95,85,73,30.40,30.29,5,1,6,0.03
2014-12-23,43.6,39.9,36.5,42.0,38.7,35.0,96,95,93,30.29,30.18,6,2,9,0.06
2014-12-24,42.4,40.9,39.5,41.0,40.0,38.0,96,96,95,30.18,29.55,4,1,7,0.17
2014-12-25,52.8,45.7,40.8,49.0,37.3,29.0,98,75,53,29.94,29.44,10,2,23,0.06
2014-12-26,52.6,40.6,33.5,36.0,31.7,29.0,89,72,53,30.14,29.94,5,1,12,0.00
2014-12-27,52.6,39.2,30.2,38.0,32.7,28.0,94,79,54,30.21,29.99,6,1,12,0.00
2014-12-28,52.0,44.3,38.2,46.0,37.4,30.0,92,77,62,29.98,29.73,10,1,18,0.04
2014-12-29,43.4,34.3,27.4,29.0,21.4,13.0,86,61,42,30.22,29.98,6,1,12,0.00
2014-12-30,30.6,23.3,15.0,13.0,8.4,0.0,77,55,32,30.36,30.22,7,1,14,0.00
2014-12-31,33.4,19.8,12.3,15.0,9.8,7.0,85,67,42,30.31,30.11,6,1,11,0.00
2015-1-1,35.0,23.9,13.4,16.0,10.9,9.0,86,60,37,30.10,29.89,9,2,17,0.00
2015-1-2,41.3,32.2,23.4,24.0,18.1,12.0,74,57,45,30.46,29.91,9,2,19,0.00